createdAt,value
2022-11-30T00:01:33.321Z,101638.31
2022-11-30T00:04:00.099Z,101637.75
2022-11-30T00:06:26.930Z,101634.69
2022-11-30T00:08:58.669Z,101638.16
2022-11-30T00:11:27.256Z,101633.50
2022-11-30T00:13:54.108Z,101634.88
2022-11-30T00:16:23.520Z,101631.91
2022-11-30T00:18:50.759Z,101635.75
2022-11-30T00:21:17.970Z,101640.81
2022-11-30T00:23:46.518Z,101645.13
2022-11-30T00:26:16.376Z,101641.72
2022-11-30T00:28:45.285Z,101643.16
2022-11-30T00:31:14.219Z,101649.47
2022-11-30T00:33:41.127Z,101646.63
2022-11-30T00:36:11.565Z,101648.63
2022-11-30T00:38:38.397Z,101648.81
2022-11-30T00:41:05.615Z,101646.06
2022-11-30T00:43:32.623Z,101639.91
2022-11-30T00:45:59.505Z,101646.22
2022-11-30T00:48:26.425Z,101644.16
2022-11-30T00:50:53.489Z,101645.09
2022-11-30T00:53:21.125Z,101648.22
2022-11-30T00:55:48.675Z,101654.19
2022-11-30T00:58:16.097Z,101656.16
2022-11-30T01:00:43.117Z,101658.00
2022-11-30T01:03:10.230Z,101660.75
2022-11-30T01:05:37.403Z,101664.25
2022-11-30T01:08:06.393Z,101669.63
2022-11-30T01:10:34.432Z,101666.81
2022-11-30T01:13:01.537Z,101676.16
2022-11-30T01:15:28.467Z,101667.59
2022-11-30T01:17:55.267Z,101672.34
2022-11-30T01:20:22.411Z,101664.06
2022-11-30T01:22:49.241Z,101673.50
2022-11-30T01:25:16.148Z,101663.25
2022-11-30T01:27:42.968Z,101672.28
2022-11-30T01:30:10.257Z,101665.69
2022-11-30T01:32:37.086Z,101668.16
2022-11-30T01:35:03.981Z,101668.00
2022-11-30T01:37:30.808Z,101663.34
2022-11-30T01:39:57.567Z,101661.56
2022-11-30T01:42:24.387Z,101663.31
2022-11-30T01:44:52.455Z,101675.00
2022-11-30T01:47:22.892Z,101663.53
2022-11-30T01:49:53.350Z,101662.72
2022-11-30T01:52:41.449Z,101660.16
2022-11-30T01:55:54.942Z,101654.66
2022-11-30T01:58:32.811Z,101655.56
2022-11-30T02:01:04.404Z,101658.22
2022-11-30T02:04:04.902Z,101657.53
2022-11-30T02:07:02.070Z,101661.47
2022-11-30T02:09:35.046Z,101650.81
2022-11-30T02:12:04.642Z,101654.91
2022-11-30T02:14:51.189Z,101655.31
2022-11-30T02:17:32.511Z,101660.75
2022-11-30T02:20:35.540Z,101655.13
2022-11-30T02:23:51.716Z,101666.19
2022-11-30T02:26:57.368Z,101655.56
2022-11-30T02:32:24.495Z,101663.25
2022-11-30T02:35:03.429Z,101659.09
2022-11-30T02:37:52.192Z,101670.91
2022-11-30T02:40:22.167Z,101662.13
2022-11-30T02:42:57.117Z,101659.47
2022-11-30T02:45:51.220Z,101664.16
2022-11-30T02:48:30.321Z,101655.16
2022-11-30T02:51:08.309Z,101656.91
2022-11-30T02:53:54.356Z,101665.78
2022-11-30T02:56:30.465Z,101663.00
2022-11-30T02:59:09.583Z,101660.28
2022-11-30T03:01:40.423Z,101668.28
2022-11-30T03:04:08.615Z,101669.16
2022-11-30T03:06:38.888Z,101664.88
2022-11-30T03:09:12.170Z,101670.09
2022-11-30T03:11:42.435Z,101666.66
2022-11-30T03:14:09.386Z,101667.34
2022-11-30T03:16:42.451Z,101672.16
2022-11-30T03:19:19.153Z,101675.72
2022-11-30T03:21:51.176Z,101668.69
2022-11-30T03:24:19.001Z,101664.03
2022-11-30T03:26:52.738Z,101673.56
2022-11-30T03:29:24.150Z,101670.72
2022-11-30T03:31:57.926Z,101665.47
2022-11-30T03:34:27.370Z,101663.63
2022-11-30T03:36:58.023Z,101676.41
2022-11-30T03:39:26.717Z,101670.97
2022-11-30T03:41:57.154Z,101683.97
2022-11-30T03:44:24.863Z,101683.59
2022-11-30T03:47:00.754Z,101687.94
2022-11-30T03:49:31.022Z,101680.25
2022-11-30T03:51:58.099Z,101690.16
2022-11-30T03:54:24.888Z,101691.41
2022-11-30T03:56:51.698Z,101693.56
2022-11-30T03:59:18.512Z,101690.75
2022-11-30T04:01:45.344Z,101699.44
2022-11-30T04:04:12.558Z,101688.94
2022-11-30T04:06:40.704Z,101691.66
2022-11-30T04:09:07.480Z,101691.41
2022-11-30T04:11:35.874Z,101693.13
2022-11-30T04:14:02.712Z,101700.88
2022-11-30T04:16:29.593Z,101694.78
2022-11-30T04:18:56.411Z,101693.88
2022-11-30T04:21:23.217Z,101692.28
2022-11-30T04:23:50.028Z,101703.69
2022-11-30T04:26:17.499Z,101698.38
2022-11-30T04:28:44.730Z,101700.25
2022-11-30T04:31:12.090Z,101700.13
2022-11-30T04:33:39.354Z,101704.47
2022-11-30T04:36:07.701Z,101705.31
2022-11-30T04:38:36.509Z,101714.69
2022-11-30T04:41:08.029Z,101709.56
2022-11-30T04:43:34.870Z,101714.22
2022-11-30T04:46:01.712Z,101711.47
2022-11-30T04:48:28.492Z,101720.78
2022-11-30T04:51:00.820Z,101718.97
2022-11-30T04:53:27.644Z,101714.88
2022-11-30T04:55:54.486Z,101716.63
2022-11-30T04:58:21.265Z,101714.06
2022-11-30T05:00:48.117Z,101715.75
2022-11-30T05:03:14.930Z,101716.69
2022-11-30T05:05:41.733Z,101718.34
2022-11-30T05:08:09.498Z,101723.88
2022-11-30T05:10:36.332Z,101731.50
2022-11-30T05:13:03.125Z,101733.34
2022-11-30T05:15:30.018Z,101729.38
2022-11-30T05:18:01.279Z,101726.94
2022-11-30T05:20:31.144Z,101731.13
2022-11-30T05:22:57.937Z,101729.53
2022-11-30T05:25:24.714Z,101732.59
2022-11-30T05:27:51.546Z,101735.22
2022-11-30T05:30:18.593Z,101732.56
2022-11-30T05:32:45.459Z,101738.84
2022-11-30T05:35:12.274Z,101740.72
2022-11-30T05:37:39.069Z,101736.50
2022-11-30T05:40:06.532Z,101751.16
2022-11-30T05:42:33.374Z,101749.53
2022-11-30T05:45:00.143Z,101751.06
2022-11-30T05:47:26.968Z,101747.78
2022-11-30T05:49:53.786Z,101753.94
2022-11-30T05:52:20.571Z,101756.59
2022-11-30T05:54:47.707Z,101760.22
2022-11-30T05:57:14.730Z,101757.38
2022-11-30T05:59:41.484Z,101757.41
2022-11-30T06:02:08.460Z,101762.19
2022-11-30T06:04:35.467Z,101765.56
2022-11-30T06:07:02.327Z,101764.13
2022-11-30T06:09:29.163Z,101778.34
2022-11-30T06:11:56.069Z,101776.50
2022-11-30T06:14:22.938Z,101774.78
2022-11-30T06:16:49.824Z,101781.84
2022-11-30T06:19:16.645Z,101786.19
2022-11-30T06:21:43.452Z,101779.72
2022-11-30T06:24:12.026Z,101774.66
2022-11-30T06:26:44.933Z,101777.13
2022-11-30T06:29:14.796Z,101778.00
2022-11-30T06:31:41.696Z,101783.00
2022-11-30T06:34:08.909Z,101781.81
2022-11-30T06:36:36.557Z,101781.75
2022-11-30T06:39:04.473Z,101789.56
2022-11-30T06:41:31.329Z,101778.41
2022-11-30T06:43:58.182Z,101784.94
2022-11-30T06:46:26.192Z,101792.53
2022-11-30T06:48:52.982Z,101787.19
2022-11-30T06:51:19.895Z,101794.13
2022-11-30T06:53:47.137Z,101799.94
2022-11-30T06:56:14.031Z,101805.34
2022-11-30T06:58:41.505Z,101810.72
2022-11-30T07:01:13.315Z,101811.38
2022-11-30T07:03:40.879Z,101807.84
2022-11-30T07:06:10.238Z,101820.44
2022-11-30T07:08:37.582Z,101818.91
2022-11-30T07:11:05.153Z,101819.84
2022-11-30T07:13:31.998Z,101810.41
2022-11-30T07:15:58.804Z,101814.16
2022-11-30T07:18:30.287Z,101822.28
2022-11-30T07:21:00.805Z,101829.50
2022-11-30T07:23:50.764Z,101821.09
2022-11-30T07:26:22.238Z,101825.47
2022-11-30T07:28:54.521Z,101829.97
2022-11-30T07:31:28.718Z,101834.56
2022-11-30T07:33:56.306Z,101832.94
2022-11-30T07:36:24.349Z,101840.63
2022-11-30T07:38:51.188Z,101844.97
2022-11-30T07:41:18.232Z,101833.25
2022-11-30T07:43:45.065Z,101847.06
2022-11-30T07:46:13.183Z,101836.66
2022-11-30T07:48:40.364Z,101840.59
2022-11-30T07:51:11.479Z,101847.97
2022-11-30T07:53:38.256Z,101848.75
2022-11-30T07:56:06.860Z,101847.69
2022-11-30T07:58:33.965Z,101840.31
2022-11-30T08:01:13.586Z,101846.94
2022-11-30T08:03:40.552Z,101837.66
2022-11-30T08:06:09.852Z,101840.34
2022-11-30T08:08:41.585Z,101838.88
2022-11-30T08:11:10.405Z,101851.44
2022-11-30T08:13:37.254Z,101838.16
2022-11-30T08:16:06.421Z,101847.00
2022-11-30T08:18:33.361Z,101854.88
2022-11-30T08:21:02.177Z,101852.09
2022-11-30T08:23:33.886Z,101850.94
2022-11-30T08:26:06.336Z,101856.47
2022-11-30T08:28:36.054Z,101856.25
2022-11-30T08:31:10.211Z,101862.59
2022-11-30T08:33:37.380Z,101867.19
2022-11-30T08:36:08.081Z,101866.66
2022-11-30T08:38:35.700Z,101861.47
2022-11-30T08:41:02.773Z,101866.16
2022-11-30T08:43:29.599Z,101869.81
2022-11-30T08:45:57.396Z,101874.84
2022-11-30T08:48:24.675Z,101876.91
2022-11-30T08:50:51.485Z,101888.41
2022-11-30T08:53:18.274Z,101879.97
2022-11-30T08:55:55.191Z,101891.56
2022-11-30T08:58:22.019Z,101890.47
2022-11-30T09:00:49.174Z,101894.56
2022-11-30T09:03:16.066Z,101897.19
2022-11-30T09:05:42.909Z,101895.72
2022-11-30T09:08:09.762Z,101897.41
2022-11-30T09:10:36.687Z,101891.53
2022-11-30T09:13:03.485Z,101902.91
2022-11-30T09:15:30.374Z,101902.28
2022-11-30T09:17:57.345Z,101900.56
2022-11-30T09:20:24.157Z,101896.47
2022-11-30T09:22:50.957Z,101896.69
2022-11-30T09:25:17.758Z,101907.06
2022-11-30T09:27:44.602Z,101904.50
2022-11-30T09:30:11.803Z,101898.72
2022-11-30T09:32:38.699Z,101899.56
2022-11-30T09:35:09.950Z,101895.56
2022-11-30T09:37:40.241Z,101896.47
2022-11-30T09:40:07.719Z,101894.88
2022-11-30T09:42:47.664Z,101897.31
2022-11-30T09:45:19.723Z,101901.13
2022-11-30T09:47:59.665Z,101902.09
2022-11-30T09:50:28.333Z,101898.06
2022-11-30T09:52:58.231Z,101902.19
2022-11-30T09:55:28.612Z,101900.00
2022-11-30T09:57:58.653Z,101896.81
2022-11-30T10:00:25.666Z,101898.53
2022-11-30T10:02:55.667Z,101893.72
2022-11-30T10:05:42.898Z,101898.56
2022-11-30T10:08:21.935Z,101886.59
2022-11-30T10:10:54.369Z,101900.91
2022-11-30T10:13:55.128Z,101888.66
2022-11-30T10:16:26.681Z,101891.63
2022-11-30T10:19:19.414Z,101888.72
2022-11-30T10:22:11.456Z,101895.91
2022-11-30T10:25:11.867Z,101889.81
2022-11-30T10:27:48.543Z,101891.09
2022-11-30T10:30:30.072Z,101890.97
2022-11-30T10:32:59.885Z,101899.28
2022-11-30T10:35:35.671Z,101890.03
2022-11-30T10:38:15.257Z,101884.28
2022-11-30T10:40:56.014Z,101885.91
2022-11-30T10:43:37.588Z,101882.25
2022-11-30T10:46:05.119Z,101885.34
2022-11-30T10:48:40.873Z,101891.63
2022-11-30T10:51:08.306Z,101884.75
2022-11-30T10:53:35.227Z,101890.34
2022-11-30T10:56:06.480Z,101882.41
2022-11-30T10:58:37.321Z,101875.97
2022-11-30T11:01:07.407Z,101880.13
2022-11-30T11:03:34.778Z,101884.47
2022-11-30T11:06:23.243Z,101890.56
2022-11-30T11:08:50.148Z,101891.34
2022-11-30T11:11:56.033Z,101887.06
2022-11-30T11:14:24.387Z,101890.78
2022-11-30T11:16:52.521Z,101889.00
2022-11-30T11:19:34.403Z,101890.94
2022-11-30T11:22:04.914Z,101890.81
2022-11-30T11:24:32.213Z,101891.63
2022-11-30T11:26:59.319Z,101894.91
2022-11-30T11:29:32.048Z,101897.75
2022-11-30T11:32:24.949Z,101892.56
2022-11-30T11:34:52.220Z,101884.03
2022-11-30T11:37:31.524Z,101883.03
2022-11-30T11:40:08.961Z,101891.53
2022-11-30T11:42:41.046Z,101890.13
2022-11-30T11:45:17.406Z,101891.00
2022-11-30T11:47:45.876Z,101896.75
2022-11-30T11:50:12.653Z,101898.75
2022-11-30T11:52:39.529Z,101905.81
2022-11-30T11:55:12.970Z,101896.81
2022-11-30T11:57:49.242Z,101895.19
2022-11-30T12:00:21.575Z,101904.91
2022-11-30T12:02:59.146Z,101898.97
2022-11-30T12:05:41.117Z,101910.25
2022-11-30T12:08:16.505Z,101907.31
2022-11-30T12:11:07.515Z,101922.59
2022-11-30T12:13:38.825Z,101921.97
2022-11-30T12:16:11.683Z,101929.78
2022-11-30T12:18:49.118Z,101928.91
2022-11-30T12:21:25.281Z,101931.00
2022-11-30T12:24:14.019Z,101926.38
2022-11-30T12:26:45.319Z,101922.28
2022-11-30T12:29:40.254Z,101931.66
2022-11-30T12:32:13.508Z,101931.31
2022-11-30T12:35:02.040Z,101929.44
2022-11-30T12:37:48.934Z,101932.13
2022-11-30T12:40:34.561Z,101931.19
2022-11-30T12:43:15.693Z,101935.31
2022-11-30T12:45:46.692Z,101937.53
2022-11-30T12:48:22.526Z,101937.63
2022-11-30T12:50:55.311Z,101924.28
2022-11-30T12:53:47.811Z,101927.16
2022-11-30T12:56:46.360Z,101924.47
2022-11-30T12:59:35.221Z,101922.59
2022-11-30T13:02:20.656Z,101926.25
2022-11-30T13:04:58.738Z,101927.91
2022-11-30T13:07:29.666Z,101930.44
2022-11-30T13:09:59.156Z,101923.56
2022-11-30T13:12:36.138Z,101925.63
2022-11-30T13:15:19.132Z,101922.75
2022-11-30T13:17:46.637Z,101926.59
2022-11-30T13:20:45.693Z,101918.56
2022-11-30T13:23:18.523Z,101917.53
2022-11-30T13:26:11.722Z,101924.09
2022-11-30T13:28:41.550Z,101922.59
2022-11-30T13:31:14.278Z,101926.56
2022-11-30T13:33:58.793Z,101922.09
2022-11-30T13:36:33.549Z,101930.16
2022-11-30T13:39:19.881Z,101926.09
2022-11-30T13:41:49.497Z,101925.75
2022-11-30T13:44:32.328Z,101929.91
2022-11-30T13:47:05.042Z,101932.53
2022-11-30T13:49:35.601Z,101930.69
2022-11-30T13:54:57.205Z,101937.47
2022-11-30T13:57:30.050Z,101934.03
2022-11-30T14:00:01.062Z,101935.41
2022-11-30T14:02:31.020Z,101930.03
2022-11-30T14:05:16.132Z,101936.41
2022-11-30T14:07:52.210Z,101937.97
2022-11-30T14:10:33.286Z,101937.13
2022-11-30T14:13:09.430Z,101947.13
2022-11-30T14:15:39.265Z,101943.97
2022-11-30T14:18:09.159Z,101948.81
2022-11-30T14:20:44.045Z,101948.03
2022-11-30T14:23:13.854Z,101952.75
2022-11-30T14:25:47.090Z,101953.91
2022-11-30T14:28:19.192Z,101951.28
2022-11-30T14:30:46.386Z,101957.81
2022-11-30T14:33:19.486Z,101959.44
2022-11-30T14:35:49.778Z,101948.63
2022-11-30T14:38:33.889Z,101957.63
2022-11-30T14:41:01.109Z,101951.34
2022-11-30T14:43:28.943Z,101956.06
2022-11-30T14:46:22.158Z,101959.94
2022-11-30T14:49:04.876Z,101962.59
2022-11-30T14:51:35.046Z,101958.28
2022-11-30T14:54:14.030Z,101963.41
2022-11-30T14:56:52.716Z,101973.06
2022-11-30T14:59:51.577Z,101973.59
2022-11-30T15:02:26.575Z,101966.66
2022-11-30T15:04:54.569Z,101969.53
2022-11-30T15:07:23.106Z,101974.50
2022-11-30T15:09:52.365Z,101971.97
2022-11-30T15:12:21.211Z,101979.41
2022-11-30T15:15:17.099Z,101985.13
2022-11-30T15:17:54.724Z,101983.47
2022-11-30T15:20:39.645Z,101976.25
2022-11-30T15:23:12.890Z,101990.25
2022-11-30T15:25:48.481Z,101980.94
2022-11-30T15:28:20.425Z,101987.28
2022-11-30T15:30:48.846Z,101997.09
2022-11-30T15:33:23.862Z,102004.09
2022-11-30T15:36:18.759Z,102003.03
2022-11-30T15:38:41.736Z,102002.25
2022-11-30T15:41:22.328Z,102008.25
2022-11-30T15:43:54.361Z,101993.19
2022-11-30T15:46:46.324Z,101997.56
2022-11-30T15:49:28.094Z,102001.00
2022-11-30T15:52:18.241Z,102001.59
2022-11-30T15:54:55.904Z,101995.25
2022-11-30T16:00:21.729Z,102007.91
2022-11-30T16:02:48.772Z,101999.25
2022-11-30T16:05:19.708Z,102001.03
2022-11-30T16:08:06.243Z,102001.91
2022-11-30T16:10:38.533Z,102007.06
2022-11-30T16:13:06.036Z,102006.72
2022-11-30T16:15:37.468Z,102015.81
2022-11-30T16:18:24.720Z,102013.75
2022-11-30T16:20:54.834Z,102015.34
2022-11-30T16:23:21.654Z,102020.47
2022-11-30T16:25:49.474Z,102016.88
2022-11-30T16:28:17.488Z,102023.22
2022-11-30T16:30:44.675Z,102021.38
2022-11-30T16:33:17.265Z,102026.97
2022-11-30T16:35:51.820Z,102009.94
2022-11-30T16:38:18.946Z,102022.34
2022-11-30T16:40:46.219Z,102030.03
2022-11-30T16:43:13.303Z,102027.75
2022-11-30T16:45:42.154Z,102041.53
2022-11-30T16:48:09.032Z,102033.72
2022-11-30T16:50:36.520Z,102031.59
2022-11-30T16:53:04.702Z,102030.94
2022-11-30T16:55:37.811Z,102029.66
2022-11-30T16:58:05.290Z,102036.50
2022-11-30T17:00:32.465Z,102035.97
2022-11-30T17:03:18.628Z,102038.63
2022-11-30T17:05:48.353Z,102044.66
2022-11-30T17:08:15.254Z,102039.16
2022-11-30T17:10:42.401Z,102039.47
2022-11-30T17:13:13.791Z,102052.38
2022-11-30T17:15:40.975Z,102052.31
2022-11-30T17:18:07.798Z,102060.44
2022-11-30T17:20:36.256Z,102053.16
2022-11-30T17:23:04.084Z,102057.31
2022-11-30T17:25:30.983Z,102060.44
2022-11-30T17:27:57.886Z,102061.94
2022-11-30T17:30:24.877Z,102066.28
2022-11-30T17:32:51.684Z,102067.22
2022-11-30T17:35:19.078Z,102075.22
2022-11-30T17:37:46.085Z,102067.88
2022-11-30T17:40:14.410Z,102063.19
2022-11-30T17:42:41.187Z,102063.50
2022-11-30T17:45:08.621Z,102067.41
2022-11-30T17:47:35.415Z,102072.00
2022-11-30T17:50:02.394Z,102069.59
2022-11-30T17:52:29.185Z,102069.59
2022-11-30T17:54:55.992Z,102063.59
2022-11-30T17:57:22.911Z,102063.72
2022-11-30T17:59:49.708Z,102064.75
2022-11-30T18:02:16.563Z,102065.28
2022-11-30T18:04:43.457Z,102072.56
2022-11-30T18:07:10.265Z,102057.16
2022-11-30T18:09:42.394Z,102063.88
2022-11-30T18:12:10.843Z,102061.88
2022-11-30T18:14:37.649Z,102063.28
2022-11-30T18:17:05.613Z,102068.59
2022-11-30T18:19:32.609Z,102073.25
2022-11-30T18:21:59.509Z,102074.53
2022-11-30T18:24:26.414Z,102079.00
2022-11-30T18:26:53.580Z,102075.84
2022-11-30T18:29:20.533Z,102078.00
2022-11-30T18:31:51.318Z,102071.19
2022-11-30T18:34:18.333Z,102075.41
2022-11-30T18:36:45.287Z,102083.13
2022-11-30T18:39:12.242Z,102085.03
2022-11-30T18:41:41.821Z,102090.84
2022-11-30T18:44:09.838Z,102084.44
2022-11-30T18:46:36.800Z,102094.38
2022-11-30T18:49:03.669Z,102094.44
2022-11-30T18:51:30.981Z,102087.47
2022-11-30T18:54:05.726Z,102097.13
2022-11-30T18:56:34.999Z,102097.34
2022-11-30T18:59:06.110Z,102097.38
2022-11-30T19:01:32.948Z,102098.41
2022-11-30T19:04:01.940Z,102102.44
2022-11-30T19:06:29.870Z,102107.72
2022-11-30T19:08:57.372Z,102096.88
2022-11-30T19:11:24.400Z,102100.06
2022-11-30T19:13:58.728Z,102104.72
2022-11-30T19:16:25.974Z,102112.81
2022-11-30T19:18:53.564Z,102106.75
2022-11-30T19:21:21.922Z,102104.44
2022-11-30T19:23:49.423Z,102111.41
2022-11-30T19:26:16.285Z,102111.50
2022-11-30T19:28:44.123Z,102111.97
2022-11-30T19:31:13.252Z,102119.78
2022-11-30T19:33:41.303Z,102121.34
2022-11-30T19:36:11.846Z,102125.88
2022-11-30T19:38:38.736Z,102121.50
2022-11-30T19:41:07.031Z,102127.34
2022-11-30T19:43:34.091Z,102137.06
2022-11-30T19:46:12.094Z,102134.72
2022-11-30T19:48:38.990Z,102137.78
2022-11-30T19:51:18.594Z,102134.75
2022-11-30T19:53:45.899Z,102138.97
2022-11-30T19:56:17.043Z,102132.75
2022-11-30T19:58:45.498Z,102136.28
2022-11-30T20:01:19.354Z,102137.00
2022-11-30T20:03:46.256Z,102130.00
2022-11-30T20:06:13.051Z,102134.06
2022-11-30T20:08:40.368Z,102136.09
2022-11-30T20:11:08.545Z,102139.91
2022-11-30T20:13:35.414Z,102141.31
2022-11-30T20:16:23.973Z,102133.56
2022-11-30T20:18:56.340Z,102136.88
2022-11-30T20:21:25.499Z,102139.47
2022-11-30T20:23:54.637Z,102143.41
2022-11-30T20:26:29.860Z,102147.66
2022-11-30T20:28:57.765Z,102143.59
2022-11-30T20:31:25.777Z,102139.22
2022-11-30T20:33:52.591Z,102144.03
2022-11-30T20:36:20.800Z,102137.28
2022-11-30T20:38:47.870Z,102137.78
2022-11-30T20:41:16.747Z,102141.50
2022-11-30T20:43:43.731Z,102141.03
2022-11-30T20:46:15.853Z,102139.78
2022-11-30T20:48:42.858Z,102142.19
2022-11-30T20:51:30.780Z,102148.03
2022-11-30T20:54:06.581Z,102157.22
2022-11-30T20:56:35.383Z,102152.47
2022-11-30T20:59:12.127Z,102151.72
2022-11-30T21:01:46.037Z,102152.47
2022-11-30T21:04:13.021Z,102156.16
2022-11-30T21:06:40.682Z,102154.00
2022-11-30T21:09:07.828Z,102153.00
2022-11-30T21:11:34.731Z,102155.50
2022-11-30T21:14:01.553Z,102148.97
2022-11-30T21:16:29.840Z,102155.16
2022-11-30T21:18:58.452Z,102154.22
2022-11-30T21:21:28.457Z,102158.53
2022-11-30T21:23:57.690Z,102158.53
2022-11-30T21:26:26.975Z,102153.78
2022-11-30T21:28:58.404Z,102157.59
2022-11-30T21:31:25.293Z,102150.28
2022-11-30T21:33:53.609Z,102152.97
2022-11-30T21:36:21.784Z,102152.97
2022-11-30T21:38:51.264Z,102155.31
2022-11-30T21:41:18.237Z,102155.88
2022-11-30T21:43:45.062Z,102156.00
2022-11-30T21:46:14.543Z,102140.88
2022-11-30T21:48:45.491Z,102147.75
2022-11-30T21:51:14.748Z,102143.72
2022-11-30T21:53:46.583Z,102150.13
2022-11-30T21:56:17.705Z,102158.38
2022-11-30T21:58:46.579Z,102158.69
2022-11-30T22:01:18.231Z,102162.97
2022-11-30T22:03:45.475Z,102159.88
2022-11-30T22:06:14.553Z,102165.22
2022-11-30T22:08:41.975Z,102167.91
2022-11-30T22:11:11.844Z,102166.22
2022-11-30T22:13:39.541Z,102163.63
2022-11-30T22:16:14.644Z,102158.03
2022-11-30T22:18:42.835Z,102157.44
2022-11-30T22:21:10.990Z,102161.75
2022-11-30T22:23:40.094Z,102164.34
2022-11-30T22:26:11.131Z,102164.28
2022-11-30T22:28:38.335Z,102164.19
2022-11-30T22:31:10.061Z,102167.53
2022-11-30T22:33:38.813Z,102169.97
2022-11-30T22:36:07.055Z,102174.28
2022-11-30T22:38:36.826Z,102168.81
2022-11-30T22:41:06.048Z,102172.25
2022-11-30T22:43:33.425Z,102164.59
2022-11-30T22:46:05.727Z,102171.09
2022-11-30T22:48:33.069Z,102169.16
2022-11-30T22:51:21.150Z,102167.81
2022-11-30T22:53:48.949Z,102165.88
2022-11-30T22:56:18.571Z,102173.13
2022-11-30T22:58:49.556Z,102161.78
2022-11-30T23:01:17.558Z,102163.47
2022-11-30T23:03:45.610Z,102158.22
2022-11-30T23:06:13.570Z,102164.03
2022-11-30T23:08:40.331Z,102165.63
2022-11-30T23:11:09.431Z,102163.78
2022-11-30T23:13:37.387Z,102161.91
2022-11-30T23:16:04.904Z,102161.78
2022-11-30T23:18:37.159Z,102158.50
2022-11-30T23:21:06.825Z,102155.75
2022-11-30T23:23:33.611Z,102153.22
2022-11-30T23:26:16.964Z,102159.31
2022-11-30T23:28:45.307Z,102154.09
2022-11-30T23:31:34.128Z,102156.56
2022-11-30T23:34:01.311Z,102154.19
2022-11-30T23:36:31.154Z,102154.16
2022-11-30T23:38:59.637Z,102152.66
2022-11-30T23:41:26.675Z,102153.16
2022-11-30T23:43:53.774Z,102147.28
2022-11-30T23:46:20.904Z,102148.13
2022-11-30T23:48:48.005Z,102156.31
2022-11-30T23:51:14.816Z,102148.00
2022-11-30T23:53:41.593Z,102149.59
2022-11-30T23:56:11.409Z,102152.41
2022-11-30T23:58:39.579Z,102155.28
